N140JP SKBO-KORL
Flight info
| Callsign | N140JP |
|---|---|
| Flight time | N/A |
| Altitude | 40000 |
| Route | OSUSU4R GIKPU UQ120 PADUD/N0486F430 UQ120 DIBAM UW10 CTG UM779 ZEUSS Y217 OCTAL MUNGI1 |
| Aircraft | C750/M-SBDE3FGHRWXY/S |
Departure
| Time | 2026-05-05 23:43 |
|---|---|
| Airport | El Dorado International Airport (SKBO) |
Arrival
| Time | N/A |
|---|---|
| Airport | Orlando Executive Airport (KORL) |
| Time | Latitude | Longitude | Altitude | Speed | Heading |
|---|---|---|---|---|---|
| 2026-05-05 23:21 | 4.70315 | -74.14673 | 8362 ft | 0 kts | 306° |
| 2026-05-05 23:36 | 4.70321 | -74.14679 | 8363 ft | 3 kts | 316° |
| 2026-05-05 23:37 | 4.70346 | -74.14692 | 8362 ft | 5 kts | 334° |
| 2026-05-05 23:37 | 4.70385 | -74.14678 | 8362 ft | 7 kts | 39° |
| 2026-05-05 23:37 | 4.70376 | -74.14641 | 8362 ft | 7 kts | 130° |
| 2026-05-05 23:37 | 4.70340 | -74.14587 | 8362 ft | 11 kts | 100° |
| 2026-05-05 23:38 | 4.70395 | -74.14528 | 8362 ft | 14 kts | 38° |
| 2026-05-05 23:38 | 4.70471 | -74.14470 | 8363 ft | 13 kts | 38° |
| 2026-05-05 23:38 | 4.70534 | -74.14469 | 8363 ft | 10 kts | 314° |
| 2026-05-05 23:38 | 4.70578 | -74.14528 | 8363 ft | 11 kts | 307° |
| 2026-05-05 23:39 | 4.70626 | -74.14590 | 8363 ft | 12 kts | 307° |
| 2026-05-05 23:39 | 4.70676 | -74.14657 | 8363 ft | 12 kts | 307° |
| 2026-05-05 23:39 | 4.70730 | -74.14729 | 8363 ft | 13 kts | 306° |
| 2026-05-05 23:39 | 4.70789 | -74.14806 | 8362 ft | 15 kts | 307° |
| 2026-05-05 23:40 | 4.70859 | -74.14899 | 8362 ft | 18 kts | 307° |
| 2026-05-05 23:40 | 4.70942 | -74.15008 | 8362 ft | 21 kts | 307° |
| 2026-05-05 23:40 | 4.71037 | -74.15134 | 8362 ft | 22 kts | 306° |
| 2026-05-05 23:40 | 4.71102 | -74.15208 | 8363 ft | 7 kts | 336° |
| 2026-05-05 23:41 | 4.71153 | -74.15214 | 8363 ft | 9 kts | 355° |
| 2026-05-05 23:41 | 4.71224 | -74.15224 | 8363 ft | 12 kts | 354° |
| 2026-05-05 23:41 | 4.71304 | -74.15222 | 8362 ft | 10 kts | 36° |
| 2026-05-05 23:41 | 4.71303 | -74.15157 | 8362 ft | 9 kts | 126° |
| 2026-05-05 23:42 | 4.71296 | -74.15149 | 8362 ft | 0 kts | 127° |
| 2026-05-05 23:42 | 4.71262 | -74.15103 | 8361 ft | 34 kts | 127° |
| 2026-05-05 23:42 | 4.70925 | -74.14657 | 8361 ft | 123 kts | 127° |
| 2026-05-05 23:42 | 4.70295 | -74.13822 | 8389 ft | 169 kts | 127° |
| 2026-05-05 23:43 | 4.69597 | -74.12920 | 9111 ft | 168 kts | 128° |
| 2026-05-05 23:43 | 4.68868 | -74.11973 | 9645 ft | 174 kts | 123° |
| 2026-05-05 23:43 | 4.68554 | -74.10817 | 10172 ft | 177 kts | 86° |
| 2026-05-05 23:43 | 4.68937 | -74.09656 | 10742 ft | 177 kts | 60° |
| 2026-05-05 23:44 | 4.69779 | -74.08759 | 11340 ft | 178 kts | 40° |
| 2026-05-05 23:44 | 4.70991 | -74.08280 | 11591 ft | 202 kts | 10° |
| 2026-05-05 23:44 | 4.72473 | -74.08313 | 11816 ft | 222 kts | 1° |
| 2026-05-05 23:44 | 4.74039 | -74.08115 | 12068 ft | 234 kts | 17° |
| 2026-05-05 23:45 | 4.75656 | -74.07592 | 12201 ft | 252 kts | 22° |
| 2026-05-05 23:45 | 4.77291 | -74.06967 | 12763 ft | 251 kts | 24° |
| 2026-05-05 23:45 | 4.78949 | -74.06380 | 13278 ft | 256 kts | 22° |
| 2026-05-05 23:45 | 4.80732 | -74.05787 | 13188 ft | 283 kts | 21° |
| 2026-05-05 23:46 | 4.82693 | -74.05137 | 13319 ft | 310 kts | 21° |
| 2026-05-05 23:46 | 4.84763 | -74.04441 | 13980 ft | 314 kts | 21° |
| 2026-05-05 23:46 | 4.86808 | -74.03751 | 14653 ft | 316 kts | 22° |
| 2026-05-05 23:46 | 4.88896 | -74.03040 | 15300 ft | 319 kts | 21° |
| 2026-05-05 23:47 | 4.91010 | -74.02323 | 16237 ft | 321 kts | 21° |
| 2026-05-05 23:47 | 4.93145 | -74.01601 | 16903 ft | 324 kts | 21° |
| 2026-05-05 23:47 | 4.95290 | -74.00875 | 17596 ft | 327 kts | 21° |
| 2026-05-05 23:47 | 4.97447 | -74.00143 | 18071 ft | 332 kts | 20° |
| 2026-05-05 23:48 | 4.99700 | -73.99378 | 18329 ft | 349 kts | 20° |
| 2026-05-05 23:48 | 5.02090 | -73.98593 | 18342 ft | 372 kts | 17° |
| 2026-05-05 23:48 | 5.04681 | -73.97961 | 18359 ft | 393 kts | 14° |
| 2026-05-05 23:48 | 5.07369 | -73.97293 | 18792 ft | 399 kts | 15° |
| 2026-05-05 23:49 | 5.10066 | -73.96608 | 19404 ft | 400 kts | 15° |
| 2026-05-05 23:49 | 5.12741 | -73.95939 | 19937 ft | 403 kts | 15° |
| 2026-05-05 23:49 | 5.15468 | -73.95268 | 20547 ft | 404 kts | 15° |
| 2026-05-05 23:49 | 5.18200 | -73.94590 | 21211 ft | 404 kts | 15° |
| 2026-05-05 23:50 | 5.20946 | -73.93902 | 21732 ft | 409 kts | 15° |
| 2026-05-05 23:50 | 5.23716 | -73.93211 | 22408 ft | 410 kts | 15° |
| 2026-05-05 23:50 | 5.26505 | -73.92518 | 22948 ft | 415 kts | 15° |
| 2026-05-05 23:50 | 5.29318 | -73.91819 | 23539 ft | 416 kts | 15° |
| 2026-05-05 23:51 | 5.32139 | -73.91115 | 24034 ft | 420 kts | 15° |
| 2026-05-05 23:51 | 5.34993 | -73.90404 | 24474 ft | 424 kts | 15° |
| 2026-05-05 23:51 | 5.37867 | -73.89688 | 24949 ft | 427 kts | 15° |
| 2026-05-05 23:51 | 5.40765 | -73.88966 | 25353 ft | 431 kts | 15° |
| 2026-05-05 23:52 | 5.43660 | -73.88245 | 25788 ft | 435 kts | 15° |
| 2026-05-05 23:52 | 5.46619 | -73.87507 | 26166 ft | 440 kts | 15° |
| 2026-05-05 23:52 | 5.49596 | -73.86765 | 26652 ft | 443 kts | 15° |
| 2026-05-05 23:52 | 5.52617 | -73.86013 | 26950 ft | 450 kts | 15° |
| 2026-05-05 23:53 | 5.55692 | -73.85347 | 27392 ft | 454 kts | 12° |
| 2026-05-05 23:53 | 5.58802 | -73.84718 | 27798 ft | 458 kts | 12° |
| 2026-05-05 23:53 | 5.61934 | -73.84073 | 28230 ft | 461 kts | 13° |
| 2026-05-05 23:53 | 5.65093 | -73.83416 | 28651 ft | 466 kts | 13° |
| 2026-05-05 23:54 | 5.67241 | -73.82972 | 28941 ft | 468 kts | 13° |
| 2026-05-05 23:54 | 5.70446 | -73.82315 | 29321 ft | 472 kts | 13° |
| 2026-05-05 23:54 | 5.73642 | -73.81660 | 29718 ft | 476 kts | 13° |
| 2026-05-05 23:54 | 5.76895 | -73.80988 | 30102 ft | 480 kts | 13° |
| 2026-05-05 23:55 | 5.80182 | -73.80308 | 30451 ft | 483 kts | 13° |
| 2026-05-05 23:55 | 5.83478 | -73.79630 | 30821 ft | 485 kts | 13° |
| 2026-05-05 23:55 | 5.86784 | -73.78951 | 31289 ft | 483 kts | 12° |
| 2026-05-05 23:55 | 5.90064 | -73.78274 | 31878 ft | 480 kts | 12° |
| 2026-05-05 23:56 | 5.93330 | -73.77600 | 32383 ft | 478 kts | 12° |
| 2026-05-05 23:56 | 5.96596 | -73.76927 | 32884 ft | 477 kts | 12° |
| 2026-05-05 23:56 | 5.99846 | -73.76258 | 33365 ft | 476 kts | 12° |
| 2026-05-05 23:56 | 6.03095 | -73.75588 | 33886 ft | 475 kts | 13° |
| 2026-05-05 23:57 | 6.06328 | -73.74922 | 34352 ft | 473 kts | 13° |
| 2026-05-05 23:57 | 6.09549 | -73.74259 | 34819 ft | 472 kts | 12° |
| 2026-05-05 23:57 | 6.12723 | -73.73606 | 35295 ft | 470 kts | 12° |
| 2026-05-05 23:57 | 6.15918 | -73.72947 | 35758 ft | 468 kts | 12° |
| 2026-05-05 23:58 | 6.19100 | -73.72292 | 36250 ft | 466 kts | 12° |
| 2026-05-05 23:58 | 6.22264 | -73.71640 | 36734 ft | 464 kts | 12° |
| 2026-05-05 23:58 | 6.25434 | -73.70987 | 37171 ft | 464 kts | 12° |
| 2026-05-05 23:58 | 6.28595 | -73.70335 | 37629 ft | 463 kts | 12° |
| 2026-05-05 23:59 | 6.31745 | -73.69686 | 38121 ft | 462 kts | 12° |
| 2026-05-05 23:59 | 6.34887 | -73.69038 | 38615 ft | 460 kts | 12° |
| 2026-05-05 23:59 | 6.38029 | -73.68391 | 39028 ft | 459 kts | 12° |
| 2026-05-05 23:59 | 6.41158 | -73.67745 | 39436 ft | 459 kts | 12° |
| 2026-05-06 00:00 | 6.44282 | -73.67101 | 39807 ft | 457 kts | 12° |
| 2026-05-06 00:00 | 6.47417 | -73.66455 | 39939 ft | 464 kts | 12° |
| 2026-05-06 00:00 | 6.53876 | -73.65123 | 39977 ft | 483 kts | 12° |
| 2026-05-06 00:01 | 6.60578 | -73.63741 | 39963 ft | 499 kts | 12° |
| 2026-05-06 00:01 | 6.67455 | -73.62322 | 39966 ft | 511 kts | 12° |
| 2026-05-06 00:02 | 6.74475 | -73.60874 | 39944 ft | 516 kts | 12° |
| 2026-05-06 00:02 | 6.81466 | -73.59431 | 39936 ft | 515 kts | 12° |
| 2026-05-06 00:03 | 6.88490 | -73.57980 | 39913 ft | 516 kts | 12° |
| 2026-05-06 00:03 | 6.95538 | -73.56529 | 39910 ft | 515 kts | 11° |
| 2026-05-06 00:04 | 6.99068 | -73.56144 | 40495 ft | 501 kts | 1° |
| 2026-05-06 00:04 | 7.02537 | -73.56214 | 40746 ft | 500 kts | 357° |
| 2026-05-06 00:04 | 7.06023 | -73.56436 | 40865 ft | 502 kts | 355° |
| 2026-05-06 00:04 | 7.09518 | -73.56658 | 41072 ft | 502 kts | 356° |
| 2026-05-06 00:05 | 7.16487 | -73.56922 | 41511 ft | 501 kts | 357° |
| 2026-05-06 00:05 | 7.19968 | -73.57100 | 41746 ft | 501 kts | 356° |
| 2026-05-06 00:05 | 7.23405 | -73.57293 | 41982 ft | 500 kts | 356° |
| 2026-05-06 00:06 | 7.26880 | -73.57457 | 42209 ft | 500 kts | 357° |
| 2026-05-06 00:06 | 7.30351 | -73.57604 | 42463 ft | 498 kts | 357° |
| 2026-05-06 00:06 | 7.33808 | -73.57767 | 42737 ft | 496 kts | 356° |
| 2026-05-06 00:06 | 7.37246 | -73.57943 | 42911 ft | 492 kts | 356° |
| 2026-05-06 00:07 | 7.40692 | -73.58112 | 42890 ft | 497 kts | 356° |
| 2026-05-06 00:07 | 7.47649 | -73.58435 | 42900 ft | 504 kts | 356° |
| 2026-05-06 00:08 | 7.54680 | -73.58777 | 42908 ft | 507 kts | 356° |
| 2026-05-06 00:08 | 7.61701 | -73.59110 | 42909 ft | 508 kts | 356° |
| 2026-05-06 00:09 | 7.68762 | -73.59450 | 42909 ft | 506 kts | 357° |
| 2026-05-06 00:09 | 7.75788 | -73.59786 | 42909 ft | 505 kts | 357° |
| 2026-05-06 00:10 | 7.82807 | -73.60123 | 42907 ft | 505 kts | 357° |
| 2026-05-06 00:10 | 7.89834 | -73.60459 | 42911 ft | 505 kts | 357° |
| 2026-05-06 00:11 | 7.96857 | -73.60797 | 42911 ft | 505 kts | 357° |
| 2026-05-06 00:11 | 8.03846 | -73.61132 | 42924 ft | 505 kts | 357° |
| 2026-05-06 00:12 | 8.10871 | -73.61470 | 42928 ft | 504 kts | 356° |
| 2026-05-06 00:12 | 8.17729 | -73.62833 | 42928 ft | 504 kts | 340° |
| 2026-05-06 00:13 | 8.23872 | -73.66213 | 42912 ft | 504 kts | 322° |
| 2026-05-06 00:13 | 8.28786 | -73.71265 | 42916 ft | 506 kts | 308° |
| 2026-05-06 00:14 | 8.32978 | -73.76937 | 42923 ft | 507 kts | 307° |
| 2026-05-06 00:14 | 8.37665 | -73.82242 | 42922 ft | 506 kts | 315° |
| 2026-05-06 00:15 | 8.42476 | -73.87426 | 42916 ft | 506 kts | 310° |
| 2026-05-06 00:15 | 8.47093 | -73.92788 | 42914 ft | 506 kts | 313° |
| 2026-05-06 00:16 | 8.51872 | -73.98019 | 42917 ft | 506 kts | 311° |
| 2026-05-06 00:16 | 8.56529 | -74.03349 | 42919 ft | 505 kts | 312° |
| 2026-05-06 00:17 | 8.61261 | -74.08603 | 42909 ft | 504 kts | 312° |
| 2026-05-06 00:17 | 8.65899 | -74.13858 | 42908 ft | 504 kts | 312° |
| 2026-05-06 00:18 | 8.70603 | -74.19125 | 42911 ft | 505 kts | 312° |
| 2026-05-06 00:18 | 8.75298 | -74.24423 | 42913 ft | 505 kts | 312° |
| 2026-05-06 00:19 | 8.79991 | -74.29699 | 42905 ft | 504 kts | 312° |
| 2026-05-06 00:19 | 8.84675 | -74.34978 | 42905 ft | 503 kts | 312° |
| 2026-05-06 00:20 | 8.89356 | -74.40250 | 42902 ft | 503 kts | 312° |
| 2026-05-06 00:20 | 8.93998 | -74.45483 | 42898 ft | 503 kts | 312° |
| 2026-05-06 00:21 | 8.98668 | -74.50749 | 42903 ft | 503 kts | 312° |
| 2026-05-06 00:21 | 9.03345 | -74.56025 | 42902 ft | 503 kts | 312° |
| 2026-05-06 00:22 | 9.08010 | -74.61290 | 42901 ft | 501 kts | 312° |
| 2026-05-06 00:22 | 9.12677 | -74.66560 | 42899 ft | 503 kts | 312° |
| 2026-05-06 00:23 | 9.17357 | -74.71846 | 42897 ft | 506 kts | 312° |
| 2026-05-06 00:23 | 9.22053 | -74.77153 | 42900 ft | 504 kts | 312° |
| 2026-05-06 00:24 | 9.26711 | -74.82419 | 42898 ft | 504 kts | 312° |
| 2026-05-06 00:24 | 9.31956 | -74.87133 | 42902 ft | 504 kts | 325° |
| 2026-05-06 00:25 | 9.37796 | -74.91085 | 42909 ft | 505 kts | 325° |
| 2026-05-06 00:25 | 9.43480 | -74.95276 | 42909 ft | 504 kts | 324° |
| 2026-05-06 00:26 | 9.49248 | -74.99318 | 42916 ft | 505 kts | 325° |
| 2026-05-06 00:26 | 9.54984 | -75.03451 | 42909 ft | 505 kts | 324° |
| 2026-05-06 00:27 | 9.60705 | -75.07506 | 42913 ft | 505 kts | 324° |
| 2026-05-06 00:27 | 9.66446 | -75.11611 | 42912 ft | 505 kts | 324° |
| 2026-05-06 00:28 | 9.72195 | -75.15709 | 42914 ft | 505 kts | 324° |
| 2026-05-06 00:28 | 9.77939 | -75.19817 | 42910 ft | 505 kts | 324° |
| 2026-05-06 00:29 | 9.83676 | -75.23937 | 42906 ft | 505 kts | 324° |
| 2026-05-06 00:29 | 9.89420 | -75.28050 | 42904 ft | 505 kts | 324° |
| 2026-05-06 00:30 | 9.95137 | -75.32155 | 42903 ft | 504 kts | 324° |
| 2026-05-06 00:30 | 10.00873 | -75.36269 | 42901 ft | 504 kts | 324° |
| 2026-05-06 00:31 | 10.06560 | -75.40354 | 42903 ft | 504 kts | 324° |
| 2026-05-06 00:31 | 10.12290 | -75.44469 | 42901 ft | 504 kts | 324° |
| 2026-05-06 00:32 | 10.18014 | -75.48580 | 42895 ft | 504 kts | 324° |
| 2026-05-06 00:32 | 10.24285 | -75.51760 | 42885 ft | 506 kts | 341° |
| 2026-05-06 00:33 | 10.31106 | -75.53536 | 42891 ft | 506 kts | 346° |
| 2026-05-06 00:33 | 10.37829 | -75.55478 | 42891 ft | 505 kts | 341° |
| 2026-05-06 00:34 | 10.44601 | -75.57445 | 42890 ft | 506 kts | 344° |
| 2026-05-06 00:34 | 10.51383 | -75.59358 | 42889 ft | 505 kts | 342° |
| 2026-05-06 00:35 | 10.58115 | -75.61327 | 42905 ft | 506 kts | 343° |
| 2026-05-06 00:35 | 10.64896 | -75.63246 | 42905 ft | 505 kts | 343° |
| 2026-05-06 00:36 | 10.71663 | -75.65214 | 42909 ft | 506 kts | 343° |
| 2026-05-06 00:36 | 10.78439 | -75.67148 | 42908 ft | 506 kts | 343° |
| 2026-05-06 00:37 | 10.85221 | -75.69110 | 42909 ft | 506 kts | 343° |
| 2026-05-06 00:37 | 10.91992 | -75.71053 | 42910 ft | 505 kts | 343° |
| 2026-05-06 00:38 | 10.98719 | -75.72995 | 42912 ft | 504 kts | 342° |
| 2026-05-06 00:38 | 11.05438 | -75.74927 | 42911 ft | 503 kts | 342° |
| 2026-05-06 00:39 | 11.12196 | -75.76782 | 42913 ft | 503 kts | 343° |
| 2026-05-06 00:39 | 11.18959 | -75.78669 | 42912 ft | 503 kts | 343° |
| 2026-05-06 00:40 | 11.25723 | -75.80547 | 42915 ft | 504 kts | 343° |
| 2026-05-06 00:40 | 11.32490 | -75.82426 | 42918 ft | 503 kts | 343° |
| 2026-05-06 00:41 | 11.39215 | -75.84300 | 42921 ft | 504 kts | 342° |
| 2026-05-06 00:41 | 11.45984 | -75.86181 | 42923 ft | 505 kts | 342° |
| 2026-05-06 00:42 | 11.52758 | -75.88069 | 42921 ft | 504 kts | 342° |
| 2026-05-06 00:42 | 11.58391 | -75.89637 | 42920 ft | 504 kts | 343° |
| 2026-05-06 00:43 | 11.65165 | -75.91525 | 42918 ft | 504 kts | 342° |
| 2026-05-06 00:43 | 11.71941 | -75.93414 | 42926 ft | 505 kts | 342° |
| 2026-05-06 00:44 | 11.78729 | -75.95308 | 42930 ft | 505 kts | 342° |
| 2026-05-06 00:44 | 11.85499 | -75.97241 | 42928 ft | 505 kts | 342° |
| 2026-05-06 00:45 | 11.92272 | -75.99167 | 42924 ft | 505 kts | 342° |
| 2026-05-06 00:45 | 11.99008 | -76.01084 | 42933 ft | 505 kts | 342° |
| 2026-05-06 00:46 | 12.05769 | -76.03013 | 42933 ft | 505 kts | 342° |
| 2026-05-06 00:46 | 12.12572 | -76.04950 | 42934 ft | 508 kts | 342° |
| 2026-05-06 00:47 | 12.19382 | -76.06893 | 42936 ft | 507 kts | 342° |
| 2026-05-06 00:47 | 12.26144 | -76.08822 | 42935 ft | 507 kts | 341° |
| 2026-05-06 00:48 | 12.32943 | -76.10766 | 42943 ft | 507 kts | 342° |
| 2026-05-06 00:48 | 12.39735 | -76.12709 | 42939 ft | 507 kts | 342° |
| 2026-05-06 00:49 | 12.46546 | -76.14658 | 42935 ft | 504 kts | 342° |
| 2026-05-06 00:49 | 12.53225 | -76.16571 | 42931 ft | 496 kts | 342° |
| 2026-05-06 00:50 | 12.59857 | -76.18473 | 42928 ft | 499 kts | 342° |
| 2026-05-06 00:50 | 12.66561 | -76.20394 | 42930 ft | 499 kts | 342° |
| 2026-05-06 00:51 | 12.73257 | -76.22316 | 42940 ft | 500 kts | 342° |
| 2026-05-06 00:51 | 12.79952 | -76.24237 | 42946 ft | 498 kts | 342° |
| 2026-05-06 00:52 | 12.86604 | -76.26147 | 42944 ft | 496 kts | 342° |
| 2026-05-06 00:52 | 12.93218 | -76.28048 | 42943 ft | 496 kts | 342° |
| 2026-05-06 00:53 | 12.99871 | -76.29961 | 42949 ft | 496 kts | 342° |
| 2026-05-06 00:53 | 13.06525 | -76.31875 | 42948 ft | 496 kts | 342° |
| 2026-05-06 00:54 | 13.13180 | -76.33790 | 42952 ft | 496 kts | 342° |
| 2026-05-06 00:54 | 13.19804 | -76.35698 | 42952 ft | 494 kts | 342° |
| 2026-05-06 00:55 | 13.26416 | -76.37604 | 42956 ft | 494 kts | 342° |
| 2026-05-06 00:55 | 13.33042 | -76.39514 | 42956 ft | 494 kts | 342° |
| 2026-05-06 00:56 | 13.39623 | -76.41412 | 42953 ft | 494 kts | 342° |
| 2026-05-06 00:56 | 13.46236 | -76.43321 | 42956 ft | 493 kts | 342° |
| 2026-05-06 00:57 | 13.52855 | -76.45233 | 42966 ft | 493 kts | 342° |
| 2026-05-06 00:57 | 13.59463 | -76.47143 | 42966 ft | 493 kts | 342° |
| 2026-05-06 00:58 | 13.66029 | -76.49041 | 42966 ft | 493 kts | 342° |
| 2026-05-06 00:58 | 13.72632 | -76.50951 | 42965 ft | 492 kts | 342° |
| 2026-05-06 00:59 | 13.79210 | -76.52855 | 42961 ft | 491 kts | 342° |
| 2026-05-06 00:59 | 13.85786 | -76.54760 | 42972 ft | 491 kts | 342° |
| 2026-05-06 01:00 | 13.92351 | -76.56663 | 42956 ft | 490 kts | 342° |
| 2026-05-06 01:00 | 13.98914 | -76.58566 | 42970 ft | 490 kts | 342° |
| 2026-05-06 01:01 | 14.05487 | -76.60473 | 42967 ft | 490 kts | 342° |
| 2026-05-06 01:01 | 14.12032 | -76.62374 | 42966 ft | 490 kts | 342° |
| 2026-05-06 01:02 | 14.18596 | -76.64281 | 42971 ft | 490 kts | 342° |
| 2026-05-06 01:02 | 14.25064 | -76.66161 | 42972 ft | 490 kts | 342° |
| 2026-05-06 01:03 | 14.31636 | -76.68072 | 42979 ft | 490 kts | 342° |
| 2026-05-06 01:03 | 14.38162 | -76.69972 | 42980 ft | 490 kts | 342° |
| 2026-05-06 01:04 | 14.44726 | -76.71883 | 42981 ft | 490 kts | 342° |
| 2026-05-06 01:04 | 14.51302 | -76.73800 | 42979 ft | 490 kts | 342° |
| 2026-05-06 01:05 | 14.57871 | -76.75715 | 42979 ft | 491 kts | 341° |
| 2026-05-06 01:05 | 14.64447 | -76.77633 | 42979 ft | 491 kts | 341° |
| 2026-05-06 01:06 | 14.71024 | -76.79554 | 42979 ft | 491 kts | 341° |
| 2026-05-06 01:06 | 14.77587 | -76.81471 | 42983 ft | 491 kts | 341° |
| 2026-05-06 01:07 | 14.84123 | -76.83381 | 42986 ft | 491 kts | 341° |
| 2026-05-06 01:07 | 14.90696 | -76.85304 | 42993 ft | 491 kts | 341° |
| 2026-05-06 01:08 | 14.97289 | -76.87233 | 42986 ft | 493 kts | 341° |
| 2026-05-06 01:08 | 15.03958 | -76.88959 | 42983 ft | 495 kts | 345° |
| 2026-05-06 01:09 | 15.10683 | -76.90478 | 42978 ft | 494 kts | 344° |
| 2026-05-06 01:09 | 15.17402 | -76.92052 | 42987 ft | 494 kts | 344° |
| 2026-05-06 01:10 | 15.24121 | -76.93591 | 42996 ft | 494 kts | 344° |
| 2026-05-06 01:10 | 15.30833 | -76.95151 | 42991 ft | 494 kts | 344° |
| 2026-05-06 01:11 | 15.37502 | -76.96689 | 42989 ft | 494 kts | 344° |
| 2026-05-06 01:11 | 15.44216 | -76.98246 | 42990 ft | 494 kts | 344° |
| 2026-05-06 01:12 | 15.50938 | -76.99802 | 42996 ft | 494 kts | 344° |
| 2026-05-06 01:12 | 15.57652 | -77.01359 | 42997 ft | 494 kts | 344° |
| 2026-05-06 01:13 | 15.64376 | -77.02919 | 43002 ft | 495 kts | 343° |
| 2026-05-06 01:13 | 15.71101 | -77.04480 | 43002 ft | 495 kts | 343° |
| 2026-05-06 01:14 | 15.81146 | -77.06814 | 43002 ft | 495 kts | 343° |
| 2026-05-06 01:14 | 15.87870 | -77.08377 | 43005 ft | 495 kts | 343° |
| 2026-05-06 01:15 | 15.94600 | -77.09943 | 43003 ft | 495 kts | 343° |
| 2026-05-06 01:15 | 16.01328 | -77.11510 | 43003 ft | 496 kts | 343° |
| 2026-05-06 01:16 | 16.08072 | -77.13081 | 43005 ft | 496 kts | 343° |
| 2026-05-06 01:16 | 16.14771 | -77.14643 | 43010 ft | 496 kts | 343° |
| 2026-05-06 01:17 | 16.21515 | -77.16217 | 43013 ft | 496 kts | 343° |
| 2026-05-06 01:17 | 16.28258 | -77.17791 | 43012 ft | 496 kts | 343° |
| 2026-05-06 01:18 | 16.35003 | -77.19367 | 43009 ft | 496 kts | 343° |
| 2026-05-06 01:18 | 16.41706 | -77.20935 | 43012 ft | 496 kts | 343° |
| 2026-05-06 01:19 | 16.48454 | -77.22513 | 43012 ft | 496 kts | 343° |
| 2026-05-06 01:19 | 16.55207 | -77.24095 | 43013 ft | 496 kts | 343° |
| 2026-05-06 01:20 | 16.61940 | -77.25675 | 43016 ft | 496 kts | 343° |
| 2026-05-06 01:20 | 16.68627 | -77.27244 | 43019 ft | 496 kts | 342° |
| 2026-05-06 01:21 | 16.75356 | -77.28824 | 43025 ft | 495 kts | 342° |
| 2026-05-06 01:21 | 16.82073 | -77.30403 | 43025 ft | 495 kts | 342° |
| 2026-05-06 01:22 | 16.88794 | -77.31983 | 43020 ft | 495 kts | 342° |
| 2026-05-06 01:22 | 16.95523 | -77.33567 | 43023 ft | 495 kts | 342° |
| 2026-05-06 01:23 | 17.02246 | -77.35150 | 43025 ft | 495 kts | 342° |
| 2026-05-06 01:23 | 17.08970 | -77.36735 | 43029 ft | 495 kts | 342° |
| 2026-05-06 01:24 | 17.15643 | -77.38309 | 43033 ft | 494 kts | 342° |
| 2026-05-06 01:24 | 17.22358 | -77.39894 | 43034 ft | 495 kts | 342° |
| 2026-05-06 01:25 | 17.29078 | -77.41481 | 43030 ft | 495 kts | 342° |
| 2026-05-06 01:25 | 17.35814 | -77.43074 | 43029 ft | 495 kts | 342° |
| 2026-05-06 01:26 | 17.42523 | -77.44661 | 43019 ft | 494 kts | 342° |
| 2026-05-06 01:26 | 17.49231 | -77.46249 | 43025 ft | 494 kts | 342° |
| 2026-05-06 01:27 | 17.55940 | -77.47838 | 43017 ft | 494 kts | 342° |
| 2026-05-06 01:27 | 17.62609 | -77.49419 | 43023 ft | 494 kts | 342° |
| 2026-05-06 01:28 | 17.69311 | -77.51009 | 43029 ft | 494 kts | 342° |
| 2026-05-06 01:28 | 17.76019 | -77.52601 | 43040 ft | 494 kts | 342° |
| 2026-05-06 01:29 | 17.82730 | -77.54196 | 43035 ft | 494 kts | 342° |
| 2026-05-06 01:29 | 17.89441 | -77.55792 | 43037 ft | 494 kts | 342° |
| 2026-05-06 01:30 | 17.95013 | -77.57117 | 43037 ft | 494 kts | 342° |
| 2026-05-06 01:30 | 18.01719 | -77.58714 | 43040 ft | 494 kts | 342° |
| 2026-05-06 01:31 | 18.08423 | -77.60311 | 43040 ft | 493 kts | 342° |
| 2026-05-06 01:31 | 18.15129 | -77.61911 | 43037 ft | 493 kts | 342° |
| 2026-05-06 01:32 | 18.21829 | -77.63510 | 43044 ft | 493 kts | 342° |
| 2026-05-06 01:32 | 18.28525 | -77.65109 | 43044 ft | 493 kts | 342° |
| 2026-05-06 01:33 | 18.35177 | -77.66699 | 43040 ft | 493 kts | 342° |
| 2026-05-06 01:33 | 18.41878 | -77.68303 | 43050 ft | 493 kts | 342° |
| 2026-05-06 01:34 | 18.48574 | -77.69905 | 43046 ft | 493 kts | 342° |
| 2026-05-06 01:34 | 18.55264 | -77.71508 | 43045 ft | 493 kts | 342° |
| 2026-05-06 01:35 | 18.61958 | -77.73114 | 43035 ft | 493 kts | 342° |
| 2026-05-06 01:35 | 18.68599 | -77.74707 | 43036 ft | 493 kts | 342° |
| 2026-05-06 01:36 | 18.75277 | -77.76312 | 43034 ft | 492 kts | 342° |
| 2026-05-06 01:36 | 18.81956 | -77.77917 | 43033 ft | 492 kts | 342° |
| 2026-05-06 01:37 | 18.88628 | -77.79523 | 43029 ft | 492 kts | 342° |
| 2026-05-06 01:37 | 18.95311 | -77.81132 | 43030 ft | 492 kts | 342° |
| 2026-05-06 01:38 | 19.01998 | -77.82743 | 43030 ft | 492 kts | 342° |
| 2026-05-06 01:38 | 19.08667 | -77.84351 | 43033 ft | 492 kts | 342° |
| 2026-05-06 01:39 | 19.15314 | -77.85956 | 43034 ft | 492 kts | 342° |
| 2026-05-06 01:39 | 19.21988 | -77.87568 | 43031 ft | 492 kts | 342° |
| 2026-05-06 01:40 | 19.28680 | -77.89186 | 43040 ft | 492 kts | 342° |
| 2026-05-06 01:40 | 19.35358 | -77.90802 | 43039 ft | 492 kts | 342° |
| 2026-05-06 01:41 | 19.42042 | -77.92421 | 43032 ft | 491 kts | 342° |
| 2026-05-06 01:41 | 19.48649 | -77.94022 | 43029 ft | 490 kts | 342° |
| 2026-05-06 01:42 | 19.55306 | -77.95637 | 43027 ft | 490 kts | 342° |
| 2026-05-06 01:42 | 19.61940 | -77.97248 | 43027 ft | 488 kts | 342° |
| 2026-05-06 01:43 | 19.68575 | -77.98861 | 43028 ft | 489 kts | 342° |
| 2026-05-06 01:43 | 19.75166 | -78.00463 | 43035 ft | 487 kts | 342° |
| 2026-05-06 01:44 | 19.81730 | -78.02035 | 43029 ft | 485 kts | 344° |
| 2026-05-06 01:44 | 19.88414 | -78.03230 | 43031 ft | 487 kts | 346° |
| 2026-05-06 01:45 | 19.95099 | -78.04441 | 43034 ft | 487 kts | 345° |
| 2026-05-06 01:45 | 20.01775 | -78.05644 | 43036 ft | 487 kts | 345° |
| 2026-05-06 01:46 | 20.08415 | -78.06843 | 43038 ft | 486 kts | 345° |
| 2026-05-06 01:46 | 20.15062 | -78.08044 | 43037 ft | 484 kts | 345° |
| 2026-05-06 01:47 | 20.21706 | -78.09246 | 43039 ft | 484 kts | 345° |
| 2026-05-06 01:47 | 20.28353 | -78.10449 | 43042 ft | 484 kts | 345° |
| 2026-05-06 01:48 | 20.34992 | -78.11652 | 43044 ft | 484 kts | 345° |
| 2026-05-06 01:48 | 20.41598 | -78.12851 | 43045 ft | 484 kts | 345° |
| 2026-05-06 01:49 | 20.48255 | -78.14059 | 43042 ft | 485 kts | 345° |
| 2026-05-06 01:49 | 20.54909 | -78.15268 | 43042 ft | 485 kts | 345° |
| 2026-05-06 01:50 | 20.61565 | -78.16478 | 43048 ft | 485 kts | 345° |
| 2026-05-06 01:50 | 20.68224 | -78.17690 | 43050 ft | 485 kts | 345° |
| 2026-05-06 01:51 | 20.74611 | -78.18853 | 43049 ft | 485 kts | 345° |
| 2026-05-06 01:51 | 20.81249 | -78.20064 | 43044 ft | 486 kts | 345° |
| 2026-05-06 01:52 | 20.87930 | -78.21282 | 43050 ft | 486 kts | 345° |
| 2026-05-06 01:52 | 20.94616 | -78.22504 | 43051 ft | 486 kts | 345° |
| 2026-05-06 01:53 | 21.01288 | -78.23723 | 43056 ft | 486 kts | 345° |
| 2026-05-06 01:53 | 21.07967 | -78.24945 | 43058 ft | 486 kts | 345° |
| 2026-05-06 01:54 | 21.14598 | -78.26160 | 43057 ft | 486 kts | 345° |
| 2026-05-06 01:54 | 21.21273 | -78.27386 | 43056 ft | 486 kts | 345° |
| 2026-05-06 01:55 | 21.27950 | -78.28611 | 43055 ft | 486 kts | 345° |
| 2026-05-06 01:55 | 21.34627 | -78.29839 | 43055 ft | 487 kts | 345° |
| 2026-05-06 01:56 | 21.41310 | -78.31069 | 43058 ft | 486 kts | 345° |
| 2026-05-06 01:56 | 21.47920 | -78.32286 | 43055 ft | 484 kts | 345° |
| 2026-05-06 01:57 | 21.54572 | -78.33513 | 43056 ft | 485 kts | 345° |
| 2026-05-06 01:57 | 21.61232 | -78.34741 | 43054 ft | 485 kts | 345° |
| 2026-05-06 01:58 | 21.67887 | -78.35970 | 43056 ft | 485 kts | 345° |
| 2026-05-06 01:58 | 21.74497 | -78.37192 | 43059 ft | 483 kts | 345° |
| 2026-05-06 01:59 | 21.81090 | -78.38412 | 43056 ft | 481 kts | 345° |
| 2026-05-06 01:59 | 21.87697 | -78.39636 | 43059 ft | 481 kts | 345° |
| 2026-05-06 02:00 | 21.94305 | -78.40860 | 43060 ft | 481 kts | 345° |
| 2026-05-06 02:00 | 22.00905 | -78.42085 | 43060 ft | 481 kts | 345° |
| 2026-05-06 02:01 | 22.07471 | -78.43304 | 43056 ft | 478 kts | 345° |
| 2026-05-06 02:01 | 22.13981 | -78.44514 | 43052 ft | 475 kts | 345° |
| 2026-05-06 02:02 | 22.20505 | -78.45729 | 43055 ft | 477 kts | 345° |